Time;durP1;ratioP1;P1;durP2;ratioP2;P2;SDS_P1;SDS_P2;PMS_P1;PMS_P2;Temp;Humidity;BMP_temperature;BMP_pressure;BME280_temperature;BME280_humidity;BME280_pressure;Samples;Min_cycle;Max_cycle;Signal;HPM_P1;HPM_P2
2022/10/08 00:01:52;;;;;;;3.58;2.28;;;;;;;13.52;100.00;101503.06;2613947;36;20038;-58
2022/10/08 00:04:20;;;;;;;7.38;2.53;;;;;;;13.43;100.00;101512.03;2614833;36;20041;-60
2022/10/08 00:06:49;;;;;;;10.10;2.50;;;;;;;13.40;100.00;101520.44;2615563;36;20026;-57
2022/10/08 00:09:17;;;;;;;6.28;2.50;;;;;;;13.33;100.00;101520.91;2615551;36;20030;-58
2022/10/08 00:11:45;;;;;;;9.07;2.58;;;;;;;13.36;100.00;101529.81;2616673;36;20034;-59
2022/10/08 00:14:16;;;;;;;7.82;2.55;;;;;;;13.30;100.00;101521.19;2614680;31;20035;-58
2022/10/08 00:16:44;;;;;;;7.68;2.80;;;;;;;13.43;100.00;101522.84;2615783;31;20455;-58
2022/10/08 00:19:14;;;;;;;7.82;3.10;;;;;;;13.37;100.00;101521.56;2615608;36;20061;-58
2022/10/08 00:21:44;;;;;;;8.07;2.80;;;;;;;13.30;100.00;101521.19;2616283;36;20442;-59
2022/10/08 00:24:15;;;;;;;7.38;3.20;;;;;;;13.33;100.00;101531.72;2615018;36;20582;-58
2022/10/08 00:26:44;;;;;;;8.50;2.78;;;;;;;13.32;100.00;101523.75;2608281;36;20065;-58
2022/10/08 00:29:17;;;;;;;8.52;2.95;;;;;;;13.35;100.00;101528.94;2613860;36;20058;-59
2022/10/08 00:31:48;;;;;;;7.35;2.90;;;;;;;13.46;100.00;101527.97;2613911;36;20035;-58
2022/10/08 00:34:18;;;;;;;12.20;3.35;;;;;;;13.37;100.00;101526.97;2614253;31;20065;-57
2022/10/08 00:36:47;;;;;;;8.52;2.92;;;;;;;13.57;100.00;101533.25;2615701;36;20058;-57
2022/10/08 00:39:17;;;;;;;9.20;3.15;;;;;;;13.60;100.00;101529.41;2614800;36;20030;-58
2022/10/08 00:41:48;;;;;;;7.32;3.53;;;;;;;13.41;100.00;101528.41;2616265;32;20030;-57
2022/10/08 00:44:58;;;;;;;4.75;2.40;;;;;;;13.35;100.00;101528.94;2614345;36;20177;-57
2022/10/08 00:47:44;;;;;;;5.30;2.40;;;;;;;13.43;100.00;101528.25;2613566;36;20463;-58
2022/10/08 00:50:17;;;;;;;6.50;2.50;;;;;;;13.39;100.00;101527.66;2614570;36;20524;-58
2022/10/08 00:52:48;;;;;;;6.55;2.25;;;;;;;13.33;100.00;101525.47;2615864;36;20582;-58
2022/10/08 00:55:19;;;;;;;4.35;1.80;;;;;;;13.23;100.00;101530.00;2615457;36;20058;-57
2022/10/08 00:57:48;;;;;;;5.10;1.70;;;;;;;13.21;100.00;101534.72;2613302;36;20035;-57
2022/10/08 01:05:30;;;;;;;4.38;1.90;;;;;;;13.11;100.00;101531.94;2612513;36;20038;-53
2022/10/08 01:08:07;;;;;;;4.57;1.95;;;;;;;13.09;100.00;101520.44;2614657;36;20031;-58
2022/10/08 01:10:43;;;;;;;6.30;2.25;;;;;;;13.20;100.00;101531.13;2616072;36;20577;-56
2022/10/08 01:13:21;;;;;;;6.20;2.47;;;;;;;13.20;100.00;101528.41;2614971;36;20042;-57
2022/10/08 01:15:57;;;;;;;5.18;2.50;;;;;;;13.14;100.00;101520.88;2615539;36;20537;-58
2022/10/08 01:18:33;;;;;;;7.10;3.08;;;;;;;13.15;100.00;101518.03;2614854;36;20459;-58
2022/10/08 01:21:10;;;;;;;5.20;2.47;;;;;;;13.08;100.00;101522.25;2614635;36;20067;-59
2022/10/08 01:24:02;;;;;;;5.68;2.90;;;;;;;13.12;100.00;101522.88;2612429;36;20061;-58
2022/10/08 01:26:47;;;;;;;8.10;2.50;;;;;;;12.96;100.00;101518.81;2615976;31;20397;-57
2022/10/08 01:34:33;;;;;;;6.03;2.38;;;;;;;12.89;100.00;101527.59;2614790;36;20654;-57
2022/10/08 01:37:04;;;;;;;2.60;1.90;;;;;;;12.86;100.00;101523.31;2613320;36;20045;-58
2022/10/08 01:39:36;;;;;;;4.63;1.80;;;;;;;12.92;100.00;101528.16;2615113;36;20515;-57
2022/10/08 01:42:08;;;;;;;3.38;1.85;;;;;;;12.84;100.00;101519.03;2615257;31;20423;-58
2022/10/08 01:44:41;;;;;;;2.75;1.58;;;;;;;12.88;100.00;101524.03;2613451;36;20435;-58
2022/10/08 01:47:15;;;;;;;5.97;2.10;;;;;;;12.84;100.00;101517.19;2614378;36;20045;-58
2022/10/08 01:52:24;;;;;;;4.47;1.80;;;;;;;12.75;100.00;101508.06;2616981;36;20487;-58
2022/10/08 01:54:56;;;;;;;8.35;2.40;;;;;;;12.76;100.00;101519.69;2614996;36;20459;-57
2022/10/08 01:57:27;;;;;;;6.10;2.10;;;;;;;12.82;100.00;101523.72;2614518;36;20038;-58
2022/10/08 02:00:00;;;;;;;4.78;1.50;;;;;;;12.66;100.00;101524.19;2613589;36;20428;-58
2022/10/08 02:02:28;;;;;;;4.78;1.95;;;;;;;12.72;100.00;101524.53;2614792;36;20034;-58
2022/10/08 02:04:57;;;;;;;4.38;1.67;;;;;;;12.80;100.00;101534.66;2614736;54;20035;-58
2022/10/08 02:07:31;;;;;;;5.10;2.13;;;;;;;12.77;100.00;101526.81;2618883;31;20028;-58
2022/10/08 02:10:08;;;;;;;5.53;1.65;;;;;;;12.70;100.00;101528.34;2615127;36;20475;-58
2022/10/08 02:15:05;;;;;;;5.75;2.10;;;;;;;12.62;100.00;101531.72;2614009;36;20480;-58
2022/10/08 02:17:41;;;;;;;2.80;1.67;;;;;;;12.49;100.00;101531.06;2613665;36;20045;-58
2022/10/08 02:20:18;;;;;;;7.43;2.53;;;;;;;12.45;100.00;101530.47;2613249;36;20427;-58
2022/10/08 02:22:57;;;;;;;4.28;2.20;;;;;;;12.56;100.00;101530.41;2615822;36;20463;-58
2022/10/08 02:25:32;;;;;;;3.05;1.65;;;;;;;12.48;100.00;101530.19;2615015;31;20030;-59
2022/10/08 02:28:10;;;;;;;4.88;1.92;;;;;;;12.40;100.00;101538.13;2613364;36;20575;-57
2022/10/08 02:35:41;;;;;;;3.75;1.75;;;;;;;12.33;100.00;101543.16;2614016;54;20157;-58
2022/10/08 02:45:59;;;;;;;7.50;2.13;;;;;;;12.08;100.00;101552.50;2614172;54;20038;-56
2022/10/08 02:48:32;;;;;;;2.95;1.85;;;;;;;11.91;100.00;101538.53;2614946;36;20527;-58
2022/10/08 02:56:13;;;;;;;5.00;2.20;;;;;;;11.75;100.00;101548.91;2615478;36;20026;-58
2022/10/08 02:58:44;;;;;;;6.55;2.70;;;;;;;11.77;100.00;101552.31;2613911;36;20034;-58
2022/10/08 03:01:25;;;;;;;5.20;3.55;;;;;;;11.80;100.00;101552.06;2615723;36;20038;-57
2022/10/08 03:04:00;;;;;;;8.48;5.38;;;;;;;11.71;100.00;101558.22;2615846;36;20595;-58
2022/10/08 03:06:30;;;;;;;18.50;9.35;;;;;;;11.72;100.00;101557.25;2614877;31;20122;-58
2022/10/08 03:09:01;;;;;;;11.05;6.35;;;;;;;11.71;100.00;101558.22;2612376;36;20042;-58
2022/10/08 03:19:22;;;;;;;7.57;2.72;;;;;;;11.72;100.00;101543.75;2613254;39;20467;-57
2022/10/08 03:21:54;;;;;;;8.90;2.55;;;;;;;11.76;100.00;101556.00;2615641;31;20027;-59
2022/10/08 03:24:23;;;;;;;8.23;3.05;;;;;;;11.81;100.00;101553.78;2615309;31;20053;-57
2022/10/08 03:26:54;;;;;;;10.90;3.47;;;;;;;11.97;100.00;101563.31;2614858;36;20039;-58
2022/10/08 03:34:29;;;;;;;6.60;3.42;;;;;;;11.97;100.00;101566.00;2612454;36;20046;-57
2022/10/08 03:36:57;;;;;;;8.38;3.75;;;;;;;12.01;100.00;101572.88;2615448;36;20038;-58
2022/10/08 03:39:25;;;;;;;6.25;3.40;;;;;;;12.04;100.00;101576.19;2614138;36;20030;-57
2022/10/08 03:54:55;;;;;;;18.08;5.47;;;;;;;11.80;100.00;101594.38;2614833;36;20042;-58
2022/10/08 04:12:47;;;;;;;12.55;6.55;;;;;;;11.73;100.00;101611.06;2614344;36;20038;-58
2022/10/08 04:15:15;;;;;;;12.43;5.65;;;;;;;11.78;100.00;101610.69;2617283;36;20532;-59
2022/10/08 04:17:44;;;;;;;11.90;5.90;;;;;;;11.77;100.00;101617.03;2614247;36;20042;-59
2022/10/08 04:20:12;;;;;;;14.95;5.63;;;;;;;11.76;100.00;101609.94;2615151;31;20308;-57
2022/10/08 04:22:44;;;;;;;19.70;6.40;;;;;;;11.80;100.00;101611.41;2616249;39;20452;-57
2022/10/08 04:25:12;;;;;;;12.65;5.75;;;;;;;11.83;100.00;101610.28;2615498;36;20022;-57
2022/10/08 04:27:40;;;;;;;16.17;6.25;;;;;;;11.73;100.00;101611.06;2615773;31;20030;-58
2022/10/08 04:30:12;;;;;;;13.02;5.65;;;;;;;11.74;100.00;101614.59;2614651;36;20104;-55
2022/10/08 04:32:41;;;;;;;12.85;6.32;;;;;;;11.82;100.00;101620.25;2616026;36;20035;-56
2022/10/08 04:35:10;;;;;;;13.10;6.22;;;;;;;11.86;100.00;101604.66;2616019;36;20042;-56
2022/10/08 04:37:38;;;;;;;14.85;6.07;;;;;;;11.81;100.00;101615.81;2615729;31;20023;-57
2022/10/08 04:40:07;;;;;;;10.63;6.28;;;;;;;11.86;100.00;101610.03;2615329;36;20038;-57
2022/10/08 04:42:35;;;;;;;13.85;5.70;;;;;;;11.76;100.00;101612.63;2615214;36;20032;-59
2022/10/08 04:45:04;;;;;;;14.52;6.05;;;;;;;11.67;100.00;101614.22;2614645;36;20528;-58
2022/10/08 04:47:35;;;;;;;11.50;5.70;;;;;;;11.64;100.00;101608.25;2616226;36;20397;-55
2022/10/08 04:50:03;;;;;;;13.25;6.57;;;;;;;11.55;100.00;101610.69;2615582;36;20054;-57
2022/10/08 04:52:33;;;;;;;11.00;5.05;;;;;;;11.61;100.00;101613.88;2616468;36;20424;-58
2022/10/08 05:00:17;;;;;;;17.25;5.50;;;;;;;11.48;100.00;101628.34;2613585;39;20459;-57
2022/10/08 05:02:48;;;;;;;15.90;5.90;;;;;;;11.49;100.00;101631.91;2613369;36;20035;-58
2022/10/08 05:05:17;;;;;;;11.05;5.28;;;;;;;11.47;100.00;101633.84;2613997;31;20038;-56
2022/10/08 05:07:45;;;;;;;11.47;5.60;;;;;;;11.35;100.00;101638.38;2614041;36;20052;-58
2022/10/08 05:25:43;;;;;;;11.85;4.75;;;;;;;11.29;100.00;101665.84;2614077;54;20068;-57
2022/10/08 05:28:11;;;;;;;12.13;5.10;;;;;;;11.18;100.00;101669.38;2614021;36;20121;-57
2022/10/08 05:38:13;;;;;;;11.10;5.03;;;;;;;11.02;100.00;101667.88;2610886;36;21823;-57
2022/10/08 05:40:44;;;;;;;11.93;4.28;;;;;;;10.98;100.00;101670.91;2614059;31;20034;-58
2022/10/08 05:43:12;;;;;;;7.20;3.80;;;;;;;10.93;100.00;101675.81;2613574;36;20085;-58
2022/10/08 05:45:40;;;;;;;11.57;4.43;;;;;;;10.93;100.00;101681.22;2613130;36;20035;-58
2022/10/08 05:48:09;;;;;;;10.38;3.50;;;;;;;10.95;100.00;101685.47;2612731;31;20055;-57
2022/10/08 05:50:43;;;;;;;11.77;4.25;;;;;;;10.95;100.00;101681.94;2613838;36;20030;-57
2022/10/08 06:23:52;;;;;;;10.25;3.50;;;;;;;10.71;100.00;101741.22;2612739;54;20038;-58
2022/10/08 06:26:21;;;;;;;10.60;3.33;;;;;;;10.74;100.00;101747.22;2615721;31;20034;-57
2022/10/08 06:33:58;;;;;;;6.53;2.90;;;;;;;10.72;100.00;101762.66;2612561;54;20570;-59
2022/10/08 06:36:28;;;;;;;11.60;3.22;;;;;;;10.75;100.00;101767.81;2616005;36;20294;-58
2022/10/08 06:46:39;;;;;;;10.27;3.03;;;;;;;10.78;100.00;101786.41;2612634;54;21230;-58
2022/10/08 06:49:07;;;;;;;9.45;2.88;;;;;;;10.84;100.00;101785.09;2615230;36;20029;-57
2022/10/08 06:59:24;;;;;;;8.55;2.50;;;;;;;11.02;100.00;101789.09;2613449;36;20030;-58
2022/10/08 07:06:53;;;;;;;8.40;3.10;;;;;;;11.12;100.00;101821.59;2611738;54;20026;-58
2022/10/08 07:17:00;;;;;;;10.82;2.30;;;;;;;11.45;100.00;101828.06;2612175;39;20440;-58
2022/10/08 07:26:57;;;;;;;5.53;1.88;;;;;;;12.04;100.00;101842.44;2613882;36;20038;-58
2022/10/08 07:29:25;;;;;;;6.90;1.52;;;;;;;12.05;100.00;101841.47;2612991;36;20023;-58
2022/10/08 07:31:54;;;;;;;6.75;1.80;;;;;;;11.94;100.00;101838.75;2614376;36;20023;-58
2022/10/08 07:42:01;;;;;;;5.18;1.40;;;;;;;12.22;100.00;101859.00;2613236;54;20023;-58
2022/10/08 07:44:30;;;;;;;6.80;1.52;;;;;;;12.33;100.00;101852.75;2613796;31;20045;-59
2022/10/08 07:54:44;;;;;;;10.57;1.92;;;;;;;12.80;100.00;101869.63;2613289;36;20578;-58
2022/10/08 07:57:15;;;;;;;6.85;1.52;;;;;;;12.58;100.00;101874.09;2616018;31;20041;-57
2022/10/08 07:59:43;;;;;;;6.18;1.40;;;;;;;12.62;100.00;101878.25;2615335;36;20575;-58
2022/10/08 08:02:12;;;;;;;7.25;1.88;;;;;;;12.66;100.00;101883.41;2613373;36;20041;-58
2022/10/08 08:04:40;;;;;;;3.13;1.48;;;;;;;12.68;100.00;101886.84;2612718;36;20034;-59
2022/10/08 08:07:08;;;;;;;5.43;1.90;;;;;;;12.75;100.00;101893.44;2615360;36;20034;-59
2022/10/08 08:14:45;;;;;;;10.80;1.63;;;;;;;13.42;100.00;101902.41;2612220;54;20027;-58
2022/10/08 08:17:13;;;;;;;7.30;1.10;;;;;;;13.51;100.00;101907.03;2615169;36;20135;-59
2022/10/08 08:19:42;;;;;;;7.40;1.80;;;;;;;13.51;100.00;101912.44;2615343;36;20038;-58
2022/10/08 08:22:10;;;;;;;6.03;1.67;;;;;;;13.45;100.00;101926.50;2615975;31;20034;-58
2022/10/08 08:24:38;;;;;;;4.90;1.17;;;;;;;13.39;100.00;101919.75;2614262;36;20042;-57
2022/10/08 08:27:06;;;;;;;10.38;2.17;;;;;;;13.35;100.00;101917.44;2614562;36;20035;-58
2022/10/08 08:29:35;;;;;;;2.63;1.27;;;;;;;13.43;100.00;101920.38;2615645;36;20460;-59
2022/10/08 08:39:49;;;;;;;6.20;1.48;;;;;;;13.83;100.00;101934.06;2612590;54;20058;-58
2022/10/08 08:42:30;;;;;;;8.00;1.50;;;;;;;13.88;100.00;101936.38;2614066;36;20034;-58
2022/10/08 08:45:01;;;;;;;3.97;1.42;;;;;;;13.84;100.00;101943.06;2611696;36;20069;-58
2022/10/08 08:47:35;;;;;;;5.38;1.70;;;;;;;13.78;100.00;101946.25;2614829;36;20115;-57
2022/10/08 08:50:08;;;;;;;5.45;1.30;;;;;;;13.93;100.00;101944.97;2614197;36;20030;-58
2022/10/08 08:52:41;;;;;;;6.40;1.30;;;;;;;14.04;100.00;101951.31;2612139;36;20041;-58
2022/10/08 08:55:16;;;;;;;5.25;1.50;;;;;;;14.07;100.00;101957.28;2614576;36;20435;-58
2022/10/08 09:00:17;;;;;;;3.22;1.02;;;;;;;14.44;100.00;101959.53;2613196;36;20057;-58
2022/10/08 09:02:53;;;;;;;9.63;1.33;;;;;;;14.47;100.00;101959.25;2614248;36;20448;-57
2022/10/08 09:05:23;;;;;;;5.60;0.98;;;;;;;14.60;100.00;101959.03;2614739;36;20034;-59
2022/10/08 09:07:55;;;;;;;5.30;1.10;;;;;;;14.85;100.00;101967.72;2611577;36;20034;-59
2022/10/08 09:10:36;;;;;;;5.18;1.10;;;;;;;15.00;100.00;101971.78;2614432;36;20038;-59
2022/10/08 09:13:05;;;;;;;5.20;1.10;;;;;;;15.38;100.00;101970.13;2613081;36;20455;-58
2022/10/08 09:20:38;;;;;;;5.30;1.40;;;;;;;15.47;100.00;101973.00;2612740;39;20427;-58
2022/10/08 09:23:15;;;;;;;3.53;1.00;;;;;;;15.64;100.00;101979.59;2611770;36;20623;-58
2022/10/08 09:25:50;;;;;;;3.38;1.10;;;;;;;15.73;100.00;101985.03;2614553;36;20464;-58
2022/10/08 09:35:58;;;;;;;3.70;1.05;;;;;;;15.57;100.00;101995.59;2612550;54;20023;-59
2022/10/08 09:38:28;;;;;;;5.13;1.30;;;;;;;15.62;100.00;101993.31;2615113;36;20038;-58
2022/10/08 09:41:08;;;;;;;7.43;1.23;;;;;;;15.69;100.00;101999.88;2614015;36;20041;-55
2022/10/08 09:43:37;;;;;;;5.95;0.90;;;;;;;15.58;100.00;102003.59;2615169;36;20030;-58
2022/10/08 09:46:10;;;;;;;3.65;1.02;;;;;;;15.67;100.00;102007.31;2613949;36;20034;-58
2022/10/08 09:48:40;;;;;;;6.63;0.93;;;;;;;15.81;100.00;102007.91;2616313;36;20038;-58
2022/10/08 09:51:15;;;;;;;4.13;2.35;;;;;;;15.88;100.00;102009.91;2616100;36;20034;-59
2022/10/08 09:58:55;;;;;;;5.45;1.15;;;;;;;16.15;100.00;102011.06;2611644;54;20713;-57
2022/10/08 10:17:07;;;;;;;4.80;1.08;;;;;;;17.28;100.00;102022.00;2611951;36;20046;-58
2022/10/08 10:27:12;;;;;;;3.72;1.02;;;;;;;16.73;100.00;102026.38;2613422;54;20067;-57
2022/10/08 10:34:59;;;;;;;4.55;0.85;;;;;;;16.46;100.00;102044.31;2612416;54;20042;-57
2022/10/08 10:37:40;;;;;;;8.00;1.08;;;;;;;16.11;100.00;102053.94;2613573;36;20041;-58
2022/10/08 10:40:29;;;;;;;2.97;0.98;;;;;;;16.81;100.00;102050.09;2612781;31;20049;-58
2022/10/08 10:43:08;;;;;;;4.35;0.90;;;;;;;16.81;100.00;102056.41;2615422;36;20065;-57
2022/10/08 10:45:38;;;;;;;;;;;;;;;16.44;100.00;102054.50;2614301;36;20419;-58
2022/10/08 10:55:58;;;;;;;5.30;1.30;;;;;;;15.69;100.00;102058.72;2612587;54;20416;-59
2022/10/08 10:58:40;;;;;;;6.50;1.20;;;;;;;15.93;100.00;102064.66;2615256;36;20035;-57
2022/10/08 11:16:31;;;;;;;5.38;1.13;;;;;;;15.91;100.00;102077.50;2613750;36;20035;-58
2022/10/08 11:19:01;;;;;;;4.15;1.20;;;;;;;16.08;100.00;102075.94;2616443;36;20030;-57
2022/10/08 11:21:46;;;;;;;5.97;1.15;;;;;;;16.40;100.00;102077.53;2617054;36;20045;-57
2022/10/08 11:24:38;;;;;;;5.80;1.35;;;;;;;16.81;100.00;102078.16;2614664;36;20073;-58
2022/10/08 11:27:18;;;;;;;5.90;1.50;;;;;;;17.38;100.00;102074.50;2615214;36;20038;-57
2022/10/08 11:29:50;;;;;;;;;;;;;;;17.52;100.00;102075.88;2615155;36;20041;-58
2022/10/08 11:32:29;;;;;;;7.05;1.17;;;;;;;17.34;100.00;102075.81;2615316;31;19947;-57
2022/10/08 11:35:14;;;;;;;7.30;1.10;;;;;;;16.98;100.00;102083.84;2615216;36;20547;-57
2022/10/08 11:37:48;;;;;;;3.17;0.80;;;;;;;16.28;100.00;102076.81;2615751;31;20047;-58
2022/10/08 11:40:29;;;;;;;4.82;0.95;;;;;;;16.45;100.00;102079.81;2615431;36;20035;-58
2022/10/08 11:50:31;;;;;;;6.22;1.13;;;;;;;16.73;100.00;102079.91;2615157;36;20067;-58
2022/10/08 11:53:03;;;;;;;5.93;0.90;;;;;;;16.80;100.00;102087.31;2616253;36;20045;-58
2022/10/08 11:55:34;;;;;;;7.38;1.58;;;;;;;16.76;100.00;102087.75;2614717;36;20030;-58
2022/10/08 11:58:05;;;;;;;2.80;1.17;;;;;;;16.86;100.00;102085.00;2616500;36;20041;-58
2022/10/08 12:08:11;;;;;;;4.35;1.00;;;;;;;17.06;100.00;102075.78;2616359;36;20097;-57
2022/10/08 12:11:07;;;;;;;10.55;1.75;;;;;;;17.20;100.00;102089.94;2616477;31;20042;-57
2022/10/08 12:18:48;;;;;;;4.05;1.50;;;;;;;17.13;100.00;102087.78;2613014;54;20030;-58
2022/10/08 12:21:37;;;;;;;6.13;1.67;;;;;;;16.56;100.00;102089.66;2616361;31;20037;-57
2022/10/08 12:24:47;;;;;;;8.80;1.50;;;;;;;16.49;100.00;102088.50;2616306;36;20211;-56
2022/10/08 12:27:40;;;;;;;1.95;0.93;;;;;;;16.32;100.00;102088.25;2617307;36;20852;-57
2022/10/08 12:37:56;;;;;;;4.72;1.30;;;;;;;16.95;100.00;102093.16;2614535;54;20027;-57
2022/10/08 12:40:33;;;;;;;4.15;1.10;;;;;;;17.02;100.00;102095.28;2615232;36;20555;-58
2022/10/08 12:51:22;;;;;;;6.05;1.40;;;;;;;16.37;100.00;102096.84;2614514;36;20130;-57
2022/10/08 12:53:51;;;;;;;6.65;1.30;;;;;;;16.51;100.00;102108.25;2616195;36;20170;-58
2022/10/08 12:56:25;;;;;;;4.75;1.45;;;;;;;16.35;100.00;102104.25;2616325;36;20022;-57
2022/10/08 12:58:56;;;;;;;8.70;1.27;;;;;;;16.62;100.00;102105.38;2615713;36;20034;-58
2022/10/08 13:01:25;;;;;;;5.15;1.50;;;;;;;16.84;100.00;102103.31;2616699;36;20077;-56
2022/10/08 13:04:10;;;;;;;7.32;1.25;;;;;;;16.88;100.00;102115.66;2615651;36;20035;-56
2022/10/08 13:06:41;;;;;;;4.38;1.17;;;;;;;17.11;100.00;102110.75;2616500;31;20035;-56
2022/10/08 13:09:27;;;;;;;5.70;1.20;;;;;;;17.14;100.00;102100.41;2615847;36;20038;-57
2022/10/08 13:11:57;;;;;;;3.45;1.40;;;;;;;17.21;100.00;102116.13;2616360;36;20062;-58
2022/10/08 13:14:27;;;;;;;3.88;1.50;;;;;;;16.88;100.00;102121.09;2615349;36;20046;-57
2022/10/08 13:16:56;;;;;;;4.05;1.67;;;;;;;16.34;100.00;102121.56;2617188;36;20570;-57
2022/10/08 13:19:33;;;;;;;5.43;1.75;;;;;;;16.18;100.00;102121.25;2616388;36;20578;-59
2022/10/08 13:22:07;;;;;;;4.40;1.33;;;;;;;16.00;100.00;102121.97;2616460;36;20034;-57
2022/10/08 13:24:44;;;;;;;6.65;1.35;;;;;;;15.87;100.00;102126.78;2616120;36;20129;-57
2022/10/08 13:27:27;;;;;;;5.18;0.88;;;;;;;15.71;100.00;102130.88;2617171;36;20452;-56
2022/10/08 13:29:55;;;;;;;3.22;1.08;;;;;;;15.58;100.00;102133.00;2615886;36;20034;-53
2022/10/08 13:32:27;;;;;;;4.05;1.27;;;;;;;15.70;100.00;102125.59;2615890;36;20045;-53
2022/10/08 13:34:57;;;;;;;5.20;1.52;;;;;;;15.74;100.00;102129.75;2616242;36;20927;-54
2022/10/08 13:37:33;;;;;;;5.43;1.50;;;;;;;15.75;100.00;102132.34;2616795;36;20424;-56
2022/10/08 13:47:57;;;;;;;5.72;1.17;;;;;;;15.44;100.00;102136.06;2614388;54;20081;-56
2022/10/08 13:50:26;;;;;;;2.42;1.10;;;;;;;15.21;100.00;102141.69;2616689;31;20042;-56
2022/10/08 13:53:00;;;;;;;4.97;2.05;;;;;;;15.16;100.00;102152.06;2616366;36;20022;-57
2022/10/08 13:55:30;;;;;;;2.95;1.52;;;;;;;14.98;100.00;102154.56;2616086;36;20463;-56
2022/10/08 13:58:01;;;;;;;9.23;1.80;;;;;;;14.97;100.00;102160.94;2616335;31;20038;-55
2022/10/08 14:00:30;;;;;;;4.90;1.50;;;;;;;14.90;100.00;102160.66;2615510;36;20038;-56
2022/10/08 14:02:58;;;;;;;;;;;;;;;14.79;100.00;102158.00;2616317;36;20572;-57
2022/10/08 14:05:29;;;;;;;5.20;1.45;;;;;;;14.70;100.00;102165.06;2616068;36;19958;-56
2022/10/08 14:08:04;;;;;;;4.55;1.30;;;;;;;14.71;100.00;102166.78;2616311;36;20035;-55
2022/10/08 14:10:33;;;;;;;8.05;1.98;;;;;;;14.66;100.00;102161.75;2617713;36;20448;-56
2022/10/08 14:13:01;;;;;;;8.30;1.88;;;;;;;14.71;100.00;102162.22;2616117;31;20034;-54
2022/10/08 14:15:29;;;;;;;6.72;2.70;;;;;;;14.65;100.00;102168.16;2615758;36;20038;-56
2022/10/08 14:17:58;;;;;;;6.63;2.63;;;;;;;14.53;100.00;102170.03;2616095;36;20034;-54
2022/10/08 14:20:26;;;;;;;4.50;1.83;;;;;;;14.60;100.00;102162.22;2615948;36;21447;-54
2022/10/08 14:22:54;;;;;;;4.80;1.40;;;;;;;14.49;100.00;102159.59;2615947;36;20535;-55
2022/10/08 14:25:27;;;;;;;6.32;1.40;;;;;;;14.61;100.00;102165.81;2615372;36;20065;-55
2022/10/08 14:27:55;;;;;;;4.47;1.60;;;;;;;14.68;100.00;102165.19;2615823;36;20870;-58
2022/10/08 14:30:24;;;;;;;4.47;2.87;;;;;;;14.93;100.00;102165.81;2616041;36;20851;-52
2022/10/08 14:32:52;;;;;;;5.20;1.90;;;;;;;15.10;100.00;102175.16;2616208;36;20291;-54
2022/10/08 14:42:58;;;;;;;7.10;2.00;;;;;;;15.69;100.00;102170.00;2613632;39;20408;-57
2022/10/08 14:45:27;;;;;;;5.07;1.05;;;;;;;15.69;100.00;102170.84;2614746;36;20038;-57
2022/10/08 14:47:55;;;;;;;1.77;1.00;;;;;;;15.58;100.00;102173.69;2616115;36;20034;-57
2022/10/08 14:50:23;;;;;;;5.80;1.00;;;;;;;15.46;100.00;102178.38;2615414;36;20026;-53
2022/10/08 14:52:52;;;;;;;4.50;1.00;;;;;;;15.40;100.00;102176.19;2615827;36;20038;-56
2022/10/08 14:55:20;;;;;;;5.07;1.98;;;;;;;15.34;100.00;102180.31;2615606;36;20295;-55
2022/10/08 14:57:48;;;;;;;6.32;1.27;;;;;;;15.31;100.00;102175.16;2616216;36;20023;-52
2022/10/08 15:00:19;;;;;;;2.47;0.60;;;;;;;15.17;100.00;102186.34;2615112;36;20073;-54
2022/10/08 15:02:48;;;;;;;4.25;0.90;;;;;;;15.13;100.00;102183.03;2615764;36;20030;-53
2022/10/08 15:05:16;;;;;;;5.20;1.00;;;;;;;15.22;100.00;102184.97;2616310;31;20447;-57
2022/10/08 15:07:44;;;;;;;4.18;1.05;;;;;;;15.20;100.00;102186.94;2615509;36;20048;-54
2022/10/08 15:10:13;;;;;;;7.30;1.08;;;;;;;15.01;100.00;102190.38;2615573;36;20023;-56
2022/10/08 15:20:33;;;;;;;3.13;1.23;;;;;;;14.58;100.00;102204.88;2614731;36;20029;-56
2022/10/08 15:23:01;;;;;;;7.03;1.25;;;;;;;14.59;100.00;102208.44;2616175;36;20034;-56
2022/10/08 15:25:29;;;;;;;6.33;1.10;;;;;;;14.63;100.00;102204.50;2615315;36;20061;-54
2022/10/08 15:27:58;;;;;;;4.53;1.00;;;;;;;14.55;100.00;102205.97;2615753;36;20026;-53
2022/10/08 15:30:26;;;;;;;5.05;1.10;;;;;;;14.71;100.00;102205.56;2614621;36;20411;-55
2022/10/08 15:32:54;;;;;;;7.57;1.67;;;;;;;14.69;100.00;102212.09;2615948;36;20443;-53
2022/10/08 15:35:23;;;;;;;2.83;1.00;;;;;;;14.54;100.00;102215.09;2616067;36;20292;-54
2022/10/08 15:37:53;;;;;;;6.95;1.48;;;;;;;14.48;100.00;102220.16;2615732;31;20296;-55
2022/10/08 15:48:12;;;;;;;5.07;0.95;;;;;;;14.28;100.00;102224.53;2613961;36;20039;-55
2022/10/08 15:50:41;;;;;;;6.55;1.50;;;;;;;14.29;100.00;102228.97;2613279;36;20023;-56
2022/10/08 15:53:12;;;;;;;5.00;1.48;;;;;;;14.24;100.00;102226.66;2614115;36;20022;-55
2022/10/08 15:55:41;;;;;;;6.28;1.42;;;;;;;14.14;100.00;102233.81;2613728;36;20023;-54
2022/10/08 15:58:09;;;;;;;5.88;1.30;;;;;;;14.06;100.00;102231.72;2614766;36;20045;-56
2022/10/08 16:00:37;;;;;;;4.70;1.58;;;;;;;14.23;100.00;102238.47;2614466;36;20038;-55
2022/10/08 16:10:45;;;;;;;5.25;2.13;;;;;;;14.39;100.00;102248.03;2613090;54;20042;-57
2022/10/08 16:13:13;;;;;;;6.22;2.70;;;;;;;14.39;100.00;102245.31;2615819;36;20046;-56
2022/10/08 16:15:42;;;;;;;5.43;2.10;;;;;;;14.45;100.00;102250.22;2614642;36;20023;-54
2022/10/08 16:18:10;;;;;;;6.95;1.98;;;;;;;14.55;100.00;102257.47;2615806;36;20034;-53
2022/10/08 16:20:38;;;;;;;7.37;2.37;;;;;;;14.48;100.00;102258.09;2615929;36;20551;-55
2022/10/08 16:23:08;;;;;;;5.30;1.63;;;;;;;14.41;100.00;102260.44;2616754;31;20030;-55
2022/10/08 16:25:36;;;;;;;4.18;1.30;;;;;;;14.28;100.00;102267.84;2615429;36;20023;-53
2022/10/08 16:36:10;;;;;;;6.85;1.70;;;;;;;14.29;100.00;102273.16;2613652;54;20044;-54
2022/10/08 16:38:40;;;;;;;5.43;1.90;;;;;;;14.28;100.00;102284.09;2613851;36;20034;-55
2022/10/08 16:41:13;;;;;;;4.93;1.50;;;;;;;14.23;100.00;102281.78;2615193;36;20026;-52
2022/10/08 16:43:44;;;;;;;4.57;1.95;;;;;;;14.19;100.00;102274.88;2613859;31;20057;-54
2022/10/08 16:46:17;;;;;;;6.70;2.00;;;;;;;14.16;100.00;102294.97;2615269;36;20085;-56
2022/10/08 16:48:53;;;;;;;6.28;2.00;;;;;;;14.07;100.00;102284.03;2616554;36;20041;-55
2022/10/08 16:51:25;;;;;;;7.40;1.90;;;;;;;13.91;100.00;102287.94;2616641;36;20034;-54
2022/10/08 16:53:58;;;;;;;4.30;2.00;;;;;;;13.86;100.00;102292.03;2616509;36;20126;-54
2022/10/08 16:56:28;;;;;;;5.05;1.50;;;;;;;13.81;100.00;102297.81;2615277;36;20555;-53
2022/10/08 16:58:58;;;;;;;7.10;1.70;;;;;;;13.83;100.00;102295.84;2615039;36;20034;-53
2022/10/08 17:01:27;;;;;;;4.38;1.73;;;;;;;13.89;100.00;102300.75;2615643;36;20062;-54
2022/10/08 17:03:56;;;;;;;5.65;1.70;;;;;;;13.90;100.00;102302.50;2615056;36;20041;-55
2022/10/08 17:06:28;;;;;;;4.45;1.80;;;;;;;13.86;100.00;102309.13;2616244;36;20069;-55
2022/10/08 17:08:57;;;;;;;7.68;1.63;;;;;;;13.83;100.00;102310.22;2615755;36;20052;-54
2022/10/08 17:11:26;;;;;;;7.25;3.00;;;;;;;13.82;100.00;102311.22;2617011;36;20074;-55
2022/10/08 17:13:56;;;;;;;6.38;1.88;;;;;;;13.80;100.00;102312.31;2615912;36;20042;-54
2022/10/08 17:16:27;;;;;;;6.57;1.67;;;;;;;13.79;100.00;102316.84;2616941;36;20035;-55
2022/10/08 17:18:56;;;;;;;7.00;1.60;;;;;;;13.66;100.00;102316.09;2617412;36;20495;-53
2022/10/08 17:21:29;;;;;;;5.50;1.25;;;;;;;13.53;100.00;102321.63;2616830;36;20022;-57
2022/10/08 17:23:59;;;;;;;6.90;1.65;;;;;;;13.39;100.00;102328.09;2616405;36;20053;-57
2022/10/08 17:26:29;;;;;;;6.63;1.80;;;;;;;13.21;100.00;102324.94;2616395;36;20034;-55
2022/10/08 17:28:58;;;;;;;4.10;1.65;;;;;;;13.10;100.00;102330.28;2615884;36;20022;-54
2022/10/08 17:31:30;;;;;;;5.72;1.50;;;;;;;13.07;100.00;102325.13;2616770;36;20034;-55
2022/10/08 17:33:59;;;;;;;5.07;1.52;;;;;;;12.96;100.00;102337.59;2616449;36;20027;-56
2022/10/08 17:36:32;;;;;;;4.55;1.10;;;;;;;12.94;100.00;102342.28;2616732;36;20038;-53